sensor_id;sensor_type;location;lat;lon;timestamp;pressure;altitude;pressure_sealevel;temperature;humidity
45813;BME280;31519;45.408;10.962;2023-01-29T00:00:13;101509.06;;;5.68;59.25
45813;BME280;31519;45.408;10.962;2023-01-29T00:03:02;101514.78;;;5.82;59.68
45813;BME280;31519;45.408;10.962;2023-01-29T00:05:30;101514.84;;;5.65;59.36
45813;BME280;31519;45.408;10.962;2023-01-29T00:07:58;101514.31;;;5.85;59.24
45813;BME280;31519;45.408;10.962;2023-01-29T00:10:26;101507.91;;;5.81;59.08
45813;BME280;31519;45.408;10.962;2023-01-29T00:12:55;101513.44;;;5.58;59.21
45813;BME280;31519;45.408;10.962;2023-01-29T00:15:23;101511.84;;;5.78;58.65
45813;BME280;31519;45.408;10.962;2023-01-29T00:17:51;101506.25;;;5.53;59.31
45813;BME280;31519;45.408;10.962;2023-01-29T00:20:19;101510.22;;;5.34;59.52
45813;BME280;31519;45.408;10.962;2023-01-29T00:22:49;101506.34;;;5.42;59.27
45813;BME280;31519;45.408;10.962;2023-01-29T00:25:17;101515.66;;;5.44;59.14
45813;BME280;31519;45.408;10.962;2023-01-29T00:27:45;101503.25;;;5.66;58.60
45813;BME280;31519;45.408;10.962;2023-01-29T00:30:13;101517.50;;;5.44;59.10
45813;BME280;31519;45.408;10.962;2023-01-29T00:32:47;101507.91;;;5.59;58.48
45813;BME280;31519;45.408;10.962;2023-01-29T00:35:15;101517.31;;;5.72;57.92
45813;BME280;31519;45.408;10.962;2023-01-29T00:37:43;101515.59;;;5.61;57.89
45813;BME280;31519;45.408;10.962;2023-01-29T00:40:11;101513.97;;;5.60;58.03
45813;BME280;31519;45.408;10.962;2023-01-29T00:42:40;101515.47;;;5.51;58.80
45813;BME280;31519;45.408;10.962;2023-01-29T00:45:26;101525.97;;;5.46;58.80
45813;BME280;31519;45.408;10.962;2023-01-29T00:47:55;101522.81;;;5.27;59.29
45813;BME280;31519;45.408;10.962;2023-01-29T00:50:23;101524.53;;;5.38;58.96
45813;BME280;31519;45.408;10.962;2023-01-29T00:52:51;101526.81;;;5.73;57.99
45813;BME280;31519;45.408;10.962;2023-01-29T00:55:21;101523.28;;;5.41;58.42
45813;BME280;31519;45.408;10.962;2023-01-29T00:58:12;101515.66;;;5.27;59.15
45813;BME280;31519;45.408;10.962;2023-01-29T01:00:40;101522.19;;;5.20;59.10
45813;BME280;31519;45.408;10.962;2023-01-29T01:03:09;101537.41;;;5.13;59.49
45813;BME280;31519;45.408;10.962;2023-01-29T01:05:38;101529.47;;;4.96;60.33
45813;BME280;31519;45.408;10.962;2023-01-29T01:08:06;101529.22;;;5.31;59.39
45813;BME280;31519;45.408;10.962;2023-01-29T01:10:59;101530.38;;;5.02;59.79
45813;BME280;31519;45.408;10.962;2023-01-29T01:13:28;101532.09;;;5.29;59.42
45813;BME280;31519;45.408;10.962;2023-01-29T01:15:58;101533.38;;;5.27;59.59
45813;BME280;31519;45.408;10.962;2023-01-29T01:18:30;101530.53;;;5.12;59.52
45813;BME280;31519;45.408;10.962;2023-01-29T01:20:58;101533.41;;;5.10;59.99
45813;BME280;31519;45.408;10.962;2023-01-29T01:23:27;101533.25;;;5.00;60.02
45813;BME280;31519;45.408;10.962;2023-01-29T01:25:55;101534.44;;;4.93;60.32
45813;BME280;31519;45.408;10.962;2023-01-29T01:28:24;101536.22;;;5.04;59.97
45813;BME280;31519;45.408;10.962;2023-01-29T01:30:52;101539.63;;;5.21;59.87
45813;BME280;31519;45.408;10.962;2023-01-29T01:33:20;101537.38;;;5.29;59.38
45813;BME280;31519;45.408;10.962;2023-01-29T01:35:48;101539.41;;;5.06;59.83
45813;BME280;31519;45.408;10.962;2023-01-29T01:38:17;101537.41;;;4.96;60.37
45813;BME280;31519;45.408;10.962;2023-01-29T01:40:45;101527.81;;;4.90;60.32
45813;BME280;31519;45.408;10.962;2023-01-29T01:43:14;101535.81;;;5.12;60.12
45813;BME280;31519;45.408;10.962;2023-01-29T01:45:42;101532.13;;;5.13;59.72
45813;BME280;31519;45.408;10.962;2023-01-29T01:51:03;101539.06;;;5.19;60.16
45813;BME280;31519;45.408;10.962;2023-01-29T01:53:40;101532.75;;;5.20;60.12
45813;BME280;31519;45.408;10.962;2023-01-29T01:56:15;101530.78;;;5.49;59.34
45813;BME280;31519;45.408;10.962;2023-01-29T01:58:56;101539.31;;;5.17;59.66
45813;BME280;31519;45.408;10.962;2023-01-29T02:01:26;101531.47;;;5.06;60.19
45813;BME280;31519;45.408;10.962;2023-01-29T02:04:05;101531.91;;;4.98;60.60
45813;BME280;31519;45.408;10.962;2023-01-29T02:06:53;101518.78;;;5.03;60.00
45813;BME280;31519;45.408;10.962;2023-01-29T02:10:27;101525.66;;;5.04;59.86
45813;BME280;31519;45.408;10.962;2023-01-29T02:12:36;101529.75;;;4.95;60.02
45813;BME280;31519;45.408;10.962;2023-01-29T02:15:06;101523.09;;;4.92;60.06
45813;BME280;31519;45.408;10.962;2023-01-29T02:17:35;101529.34;;;5.03;60.09
45813;BME280;31519;45.408;10.962;2023-01-29T02:20:17;101532.50;;;5.05;60.21
45813;BME280;31519;45.408;10.962;2023-01-29T02:25:49;101547.56;;;4.71;60.54
45813;BME280;31519;45.408;10.962;2023-01-29T02:34:09;101554.78;;;4.75;60.63
45813;BME280;31519;45.408;10.962;2023-01-29T02:36:46;101545.72;;;5.05;60.36
45813;BME280;31519;45.408;10.962;2023-01-29T02:42:23;101554.38;;;4.83;60.95
45813;BME280;31519;45.408;10.962;2023-01-29T02:45:10;101553.00;;;4.98;60.76
45813;BME280;31519;45.408;10.962;2023-01-29T02:50:33;101560.84;;;5.09;59.96
45813;BME280;31519;45.408;10.962;2023-01-29T02:53:10;101560.84;;;4.76;60.77
45813;BME280;31519;45.408;10.962;2023-01-29T02:55:51;101559.47;;;4.73;60.91
45813;BME280;31519;45.408;10.962;2023-01-29T02:58:28;101553.78;;;4.81;61.02
45813;BME280;31519;45.408;10.962;2023-01-29T03:01:03;101545.56;;;4.61;61.45
45813;BME280;31519;45.408;10.962;2023-01-29T03:03:39;101555.50;;;4.71;61.57
45813;BME280;31519;45.408;10.962;2023-01-29T03:06:20;101541.75;;;4.85;61.43
45813;BME280;31519;45.408;10.962;2023-01-29T03:09:15;101531.31;;;4.96;61.51
45813;BME280;31519;45.408;10.962;2023-01-29T03:11:45;101545.34;;;4.79;61.44
45813;BME280;31519;45.408;10.962;2023-01-29T03:14:34;101548.13;;;4.73;62.17
45813;BME280;31519;45.408;10.962;2023-01-29T03:17:34;101553.25;;;5.13;61.07
45813;BME280;31519;45.408;10.962;2023-01-29T03:20:07;101550.13;;;4.82;61.60
45813;BME280;31519;45.408;10.962;2023-01-29T03:22:44;101546.69;;;4.99;61.42
45813;BME280;31519;45.408;10.962;2023-01-29T03:25:17;101550.53;;;5.08;61.45
45813;BME280;31519;45.408;10.962;2023-01-29T03:28:07;101567.16;;;4.91;61.53
45813;BME280;31519;45.408;10.962;2023-01-29T03:30:59;101561.38;;;5.28;60.84
45813;BME280;31519;45.408;10.962;2023-01-29T03:34:16;101569.06;;;5.29;60.60
45813;BME280;31519;45.408;10.962;2023-01-29T03:39:28;101564.13;;;5.16;61.30
45813;BME280;31519;45.408;10.962;2023-01-29T03:48:13;101574.69;;;5.16;60.89
45813;BME280;31519;45.408;10.962;2023-01-29T03:50:55;101577.97;;;5.23;60.60
45813;BME280;31519;45.408;10.962;2023-01-29T03:57:16;101574.94;;;5.31;61.14
45813;BME280;31519;45.408;10.962;2023-01-29T04:00:15;101581.47;;;5.29;61.17
45813;BME280;31519;45.408;10.962;2023-01-29T04:05:42;101580.50;;;5.18;61.60
45813;BME280;31519;45.408;10.962;2023-01-29T04:08:25;101584.88;;;5.46;60.94
45813;BME280;31519;45.408;10.962;2023-01-29T04:10:58;101585.56;;;5.20;61.37
45813;BME280;31519;45.408;10.962;2023-01-29T04:13:30;101578.69;;;5.35;61.28
45813;BME280;31519;45.408;10.962;2023-01-29T04:16:03;101579.78;;;5.23;61.36
45813;BME280;31519;45.408;10.962;2023-01-29T04:18:55;101575.06;;;5.42;61.18
45813;BME280;31519;45.408;10.962;2023-01-29T04:21:29;101565.31;;;5.25;61.72
45813;BME280;31519;45.408;10.962;2023-01-29T04:23:59;101572.91;;;5.39;61.52
45813;BME280;31519;45.408;10.962;2023-01-29T04:37:34;101569.38;;;5.33;61.92
45813;BME280;31519;45.408;10.962;2023-01-29T04:40:22;101571.47;;;5.31;61.84
45813;BME280;31519;45.408;10.962;2023-01-29T04:48:27;101575.38;;;5.45;62.21
45813;BME280;31519;45.408;10.962;2023-01-29T04:51:03;101569.38;;;5.50;61.87
45813;BME280;31519;45.408;10.962;2023-01-29T04:58:54;101574.84;;;5.26;61.73
45813;BME280;31519;45.408;10.962;2023-01-29T05:01:26;101576.19;;;5.29;61.32
45813;BME280;31519;45.408;10.962;2023-01-29T05:04:01;101577.56;;;5.31;61.34
45813;BME280;31519;45.408;10.962;2023-01-29T05:06:31;101577.09;;;5.18;61.67
45813;BME280;31519;45.408;10.962;2023-01-29T05:09:00;101574.50;;;5.23;61.95
45813;BME280;31519;45.408;10.962;2023-01-29T05:11:31;101576.59;;;5.21;61.76
45813;BME280;31519;45.408;10.962;2023-01-29T05:14:03;101577.66;;;5.20;61.77
45813;BME280;31519;45.408;10.962;2023-01-29T05:16:37;101576.53;;;5.16;62.34
45813;BME280;31519;45.408;10.962;2023-01-29T05:19:10;101574.38;;;5.13;62.66
45813;BME280;31519;45.408;10.962;2023-01-29T05:21:43;101581.09;;;5.20;62.25
45813;BME280;31519;45.408;10.962;2023-01-29T05:24:25;101583.81;;;5.25;62.14
45813;BME280;31519;45.408;10.962;2023-01-29T05:26:53;101586.22;;;5.27;62.38
45813;BME280;31519;45.408;10.962;2023-01-29T05:29:45;101589.50;;;5.01;62.61
45813;BME280;31519;45.408;10.962;2023-01-29T05:32:14;101590.22;;;4.96;62.97
45813;BME280;31519;45.408;10.962;2023-01-29T05:34:43;101594.75;;;5.01;62.63
45813;BME280;31519;45.408;10.962;2023-01-29T05:37:11;101592.38;;;4.99;62.90
45813;BME280;31519;45.408;10.962;2023-01-29T05:39:39;101589.66;;;4.94;63.09
45813;BME280;31519;45.408;10.962;2023-01-29T05:42:07;101597.16;;;5.19;62.48
45813;BME280;31519;45.408;10.962;2023-01-29T05:44:37;101596.06;;;5.15;62.63
45813;BME280;31519;45.408;10.962;2023-01-29T05:47:05;101585.72;;;5.30;62.21
45813;BME280;31519;45.408;10.962;2023-01-29T05:49:34;101595.94;;;5.43;61.70
45813;BME280;31519;45.408;10.962;2023-01-29T05:52:05;101603.34;;;5.08;62.24
45813;BME280;31519;45.408;10.962;2023-01-29T05:54:33;101594.84;;;5.06;61.64
45813;BME280;31519;45.408;10.962;2023-01-29T05:57:01;101600.91;;;5.23;61.71
45813;BME280;31519;45.408;10.962;2023-01-29T05:59:31;101601.88;;;5.33;61.16
45813;BME280;31519;45.408;10.962;2023-01-29T06:01:59;101608.84;;;5.23;61.35
45813;BME280;31519;45.408;10.962;2023-01-29T06:04:27;101607.03;;;5.07;62.53
45813;BME280;31519;45.408;10.962;2023-01-29T06:06:55;101614.00;;;5.13;62.01
45813;BME280;31519;45.408;10.962;2023-01-29T06:09:24;101608.69;;;4.96;62.81
45813;BME280;31519;45.408;10.962;2023-01-29T06:11:52;101608.44;;;5.14;62.22
45813;BME280;31519;45.408;10.962;2023-01-29T06:14:20;101618.69;;;5.11;62.22
45813;BME280;31519;45.408;10.962;2023-01-29T06:16:48;101620.38;;;5.00;62.96
45813;BME280;31519;45.408;10.962;2023-01-29T06:19:16;101614.38;;;4.88;63.00
45813;BME280;31519;45.408;10.962;2023-01-29T06:21:45;101621.00;;;4.90;63.41
45813;BME280;31519;45.408;10.962;2023-01-29T06:24:13;101627.69;;;4.81;63.32
45813;BME280;31519;45.408;10.962;2023-01-29T06:26:41;101625.88;;;4.82;64.19
45813;BME280;31519;45.408;10.962;2023-01-29T06:29:10;101628.88;;;5.02;63.76
45813;BME280;31519;45.408;10.962;2023-01-29T06:31:38;101627.13;;;5.08;63.35
45813;BME280;31519;45.408;10.962;2023-01-29T06:34:07;101623.19;;;4.94;63.79
45813;BME280;31519;45.408;10.962;2023-01-29T06:36:35;101633.78;;;4.82;63.96
45813;BME280;31519;45.408;10.962;2023-01-29T06:39:04;101638.44;;;4.75;64.51
45813;BME280;31519;45.408;10.962;2023-01-29T06:41:32;101641.16;;;4.80;64.13
45813;BME280;31519;45.408;10.962;2023-01-29T06:44:00;101641.66;;;4.94;63.96
45813;BME280;31519;45.408;10.962;2023-01-29T06:46:28;101644.03;;;4.78;63.89
45813;BME280;31519;45.408;10.962;2023-01-29T06:48:58;101649.56;;;4.94;63.45
45813;BME280;31519;45.408;10.962;2023-01-29T06:51:27;101654.56;;;4.62;64.45
45813;BME280;31519;45.408;10.962;2023-01-29T06:53:56;101653.75;;;4.89;63.64
45813;BME280;31519;45.408;10.962;2023-01-29T06:56:24;101659.72;;;4.85;63.95
45813;BME280;31519;45.408;10.962;2023-01-29T06:58:53;101652.44;;;4.92;63.36
45813;BME280;31519;45.408;10.962;2023-01-29T07:01:21;101654.28;;;4.91;63.72
45813;BME280;31519;45.408;10.962;2023-01-29T07:04:03;101660.84;;;4.89;63.54
45813;BME280;31519;45.408;10.962;2023-01-29T07:06:31;101652.81;;;5.12;63.03
45813;BME280;31519;45.408;10.962;2023-01-29T07:09:00;101657.91;;;5.02;63.29
45813;BME280;31519;45.408;10.962;2023-01-29T07:11:28;101674.09;;;4.77;63.98
45813;BME280;31519;45.408;10.962;2023-01-29T07:13:57;101669.28;;;4.74;64.14
45813;BME280;31519;45.408;10.962;2023-01-29T07:16:25;101671.13;;;5.02;63.80
45813;BME280;31519;45.408;10.962;2023-01-29T07:18:53;101679.03;;;5.02;63.52
45813;BME280;31519;45.408;10.962;2023-01-29T07:21:21;101673.47;;;4.59;64.63
45813;BME280;31519;45.408;10.962;2023-01-29T07:23:50;101680.59;;;4.86;64.83
45813;BME280;31519;45.408;10.962;2023-01-29T07:26:18;101692.78;;;5.04;64.16
45813;BME280;31519;45.408;10.962;2023-01-29T07:28:46;101698.16;;;5.09;63.77
45813;BME280;31519;45.408;10.962;2023-01-29T07:31:15;101704.41;;;5.20;63.76
45813;BME280;31519;45.408;10.962;2023-01-29T07:33:43;101708.81;;;4.86;64.06
45813;BME280;31519;45.408;10.962;2023-01-29T07:36:12;101706.63;;;4.95;63.76
45813;BME280;31519;45.408;10.962;2023-01-29T07:38:41;101705.41;;;4.85;64.10
45813;BME280;31519;45.408;10.962;2023-01-29T07:41:10;101704.53;;;4.97;64.06
45813;BME280;31519;45.408;10.962;2023-01-29T07:43:41;101705.97;;;5.04;64.03
45813;BME280;31519;45.408;10.962;2023-01-29T07:46:10;101724.91;;;5.13;64.15
45813;BME280;31519;45.408;10.962;2023-01-29T07:48:38;101719.19;;;5.04;64.41
45813;BME280;31519;45.408;10.962;2023-01-29T07:51:06;101719.00;;;5.39;63.19
45813;BME280;31519;45.408;10.962;2023-01-29T07:53:36;101726.78;;;5.62;62.29
45813;BME280;31519;45.408;10.962;2023-01-29T07:56:04;101735.03;;;5.49;62.23
45813;BME280;31519;45.408;10.962;2023-01-29T07:58:33;101735.19;;;5.59;62.05
45813;BME280;31519;45.408;10.962;2023-01-29T08:01:06;101734.56;;;5.52;62.19
45813;BME280;31519;45.408;10.962;2023-01-29T08:03:35;101745.13;;;5.86;61.57
45813;BME280;31519;45.408;10.962;2023-01-29T08:06:03;101737.38;;;5.96;60.45
45813;BME280;31519;45.408;10.962;2023-01-29T08:08:32;101732.84;;;6.13;60.13
45813;BME280;31519;45.408;10.962;2023-01-29T08:11:01;101736.31;;;6.57;58.69
45813;BME280;31519;45.408;10.962;2023-01-29T08:13:32;101732.28;;;6.49;58.24
45813;BME280;31519;45.408;10.962;2023-01-29T08:16:01;101738.22;;;6.83;58.08
45813;BME280;31519;45.408;10.962;2023-01-29T08:18:31;101741.13;;;7.35;56.99
45813;BME280;31519;45.408;10.962;2023-01-29T08:21:00;101735.63;;;7.74;54.99
45813;BME280;31519;45.408;10.962;2023-01-29T08:23:29;101745.38;;;7.68;54.99
45813;BME280;31519;45.408;10.962;2023-01-29T08:25:57;101756.16;;;7.93;54.56
45813;BME280;31519;45.408;10.962;2023-01-29T08:28:26;101752.31;;;7.74;54.56
45813;BME280;31519;45.408;10.962;2023-01-29T08:30:54;101758.47;;;8.27;53.80
45813;BME280;31519;45.408;10.962;2023-01-29T08:33:22;101756.16;;;8.35;53.53
45813;BME280;31519;45.408;10.962;2023-01-29T08:36:06;101747.47;;;8.45;52.85
45813;BME280;31519;45.408;10.962;2023-01-29T08:38:35;101755.22;;;8.62;52.89
45813;BME280;31519;45.408;10.962;2023-01-29T08:41:03;101747.03;;;8.73;52.48
45813;BME280;31519;45.408;10.962;2023-01-29T08:43:33;101745.94;;;8.64;52.97
45813;BME280;31519;45.408;10.962;2023-01-29T08:46:04;101744.97;;;8.90;52.06
45813;BME280;31519;45.408;10.962;2023-01-29T08:48:33;101745.53;;;9.13;51.43
45813;BME280;31519;45.408;10.962;2023-01-29T08:51:01;101747.91;;;9.04;51.89
45813;BME280;31519;45.408;10.962;2023-01-29T08:53:31;101743.94;;;9.17;51.33
45813;BME280;31519;45.408;10.962;2023-01-29T08:55:59;101751.97;;;9.42;50.85
45813;BME280;31519;45.408;10.962;2023-01-29T08:58:29;101756.75;;;9.65;50.61
45813;BME280;31519;45.408;10.962;2023-01-29T09:01:05;101753.81;;;9.77;50.16
45813;BME280;31519;45.408;10.962;2023-01-29T09:03:34;101753.50;;;10.29;49.08
45813;BME280;31519;45.408;10.962;2023-01-29T09:06:02;101758.03;;;10.18;49.32
45813;BME280;31519;45.408;10.962;2023-01-29T09:08:30;101757.44;;;10.42;48.79
45813;BME280;31519;45.408;10.962;2023-01-29T09:10:58;101759.47;;;10.70;47.84
45813;BME280;31519;45.408;10.962;2023-01-29T09:13:28;101766.97;;;10.58;47.79
45813;BME280;31519;45.408;10.962;2023-01-29T09:16:00;101761.44;;;11.03;47.45
45813;BME280;31519;45.408;10.962;2023-01-29T09:18:30;101761.03;;;11.20;46.85
45813;BME280;31519;45.408;10.962;2023-01-29T09:20:58;101767.88;;;11.36;45.41
45813;BME280;31519;45.408;10.962;2023-01-29T09:23:28;101779.31;;;11.37;45.83
45813;BME280;31519;45.408;10.962;2023-01-29T09:25:57;101779.63;;;11.69;45.49
45813;BME280;31519;45.408;10.962;2023-01-29T09:28:25;101781.78;;;11.72;44.56
45813;BME280;31519;45.408;10.962;2023-01-29T09:30:54;101779.66;;;11.98;44.58
45813;BME280;31519;45.408;10.962;2023-01-29T09:33:22;101776.84;;;12.13;44.45
45813;BME280;31519;45.408;10.962;2023-01-29T09:35:51;101777.59;;;12.19;43.21
45813;BME280;31519;45.408;10.962;2023-01-29T09:38:19;101780.72;;;12.26;42.35
45813;BME280;31519;45.408;10.962;2023-01-29T09:40:56;101779.66;;;12.51;42.22
45813;BME280;31519;45.408;10.962;2023-01-29T09:46:15;101782.19;;;13.03;41.12
45813;BME280;31519;45.408;10.962;2023-01-29T09:49:25;101782.94;;;12.66;41.70
45813;BME280;31519;45.408;10.962;2023-01-29T09:57:51;101778.63;;;13.08;41.36
45813;BME280;31519;45.408;10.962;2023-01-29T10:01:01;101778.19;;;12.82;41.51
45813;BME280;31519;45.408;10.962;2023-01-29T10:09:37;101768.06;;;13.86;40.65
45813;BME280;31519;45.408;10.962;2023-01-29T10:15:05;101763.00;;;12.35;42.39
45813;BME280;31519;45.408;10.962;2023-01-29T10:17:57;101754.44;;;13.37;41.57
45813;BME280;31519;45.408;10.962;2023-01-29T10:20:45;101757.72;;;13.15;40.92
45813;BME280;31519;45.408;10.962;2023-01-29T10:23:37;101746.94;;;13.98;40.43
45813;BME280;31519;45.408;10.962;2023-01-29T10:26:10;101753.19;;;12.92;41.81
45813;BME280;31519;45.408;10.962;2023-01-29T10:28:43;101745.69;;;13.31;41.11
45813;BME280;31519;45.408;10.962;2023-01-29T10:31:21;101744.56;;;13.83;40.31
45813;BME280;31519;45.408;10.962;2023-01-29T10:34:09;101743.88;;;13.26;41.11
45813;BME280;31519;45.408;10.962;2023-01-29T10:36:45;101744.59;;;12.10;43.61
45813;BME280;31519;45.408;10.962;2023-01-29T10:39:18;101737.41;;;12.29;43.80
45813;BME280;31519;45.408;10.962;2023-01-29T10:44:48;101726.81;;;13.22;42.07
45813;BME280;31519;45.408;10.962;2023-01-29T10:58:22;101717.19;;;14.00;40.63
45813;BME280;31519;45.408;10.962;2023-01-29T11:00:52;101705.38;;;14.28;40.39
45813;BME280;31519;45.408;10.962;2023-01-29T11:03:31;101706.41;;;13.08;41.45
45813;BME280;31519;45.408;10.962;2023-01-29T11:11:21;101682.50;;;13.16;41.62
45813;BME280;31519;45.408;10.962;2023-01-29T11:13:56;101679.66;;;13.08;42.00
45813;BME280;31519;45.408;10.962;2023-01-29T11:16:28;101672.50;;;13.03;42.49
45813;BME280;31519;45.408;10.962;2023-01-29T11:19:00;101667.03;;;12.76;43.27
45813;BME280;31519;45.408;10.962;2023-01-29T11:21:28;101658.25;;;14.00;41.52
45813;BME280;31519;45.408;10.962;2023-01-29T11:24:11;101662.47;;;13.46;41.10
45813;BME280;31519;45.408;10.962;2023-01-29T11:26:48;101662.31;;;13.56;41.95
45813;BME280;31519;45.408;10.962;2023-01-29T11:29:45;101645.88;;;12.61;43.50
45813;BME280;31519;45.408;10.962;2023-01-29T11:32:25;101647.44;;;13.18;42.44
45813;BME280;31519;45.408;10.962;2023-01-29T11:35:24;101628.88;;;13.95;41.09
45813;BME280;31519;45.408;10.962;2023-01-29T11:38:06;101628.28;;;13.70;41.01
45813;BME280;31519;45.408;10.962;2023-01-29T11:40:38;101633.28;;;12.99;42.25
45813;BME280;31519;45.408;10.962;2023-01-29T11:43:31;101624.13;;;13.51;42.15
45813;BME280;31519;45.408;10.962;2023-01-29T11:46:05;101612.53;;;12.91;42.59
45813;BME280;31519;45.408;10.962;2023-01-29T11:48:49;101606.19;;;13.79;41.81
45813;BME280;31519;45.408;10.962;2023-01-29T11:51:35;101603.78;;;13.63;41.77
45813;BME280;31519;45.408;10.962;2023-01-29T11:54:05;101603.94;;;12.94;43.13
45813;BME280;31519;45.408;10.962;2023-01-29T11:56:34;101595.22;;;13.02;43.23
45813;BME280;31519;45.408;10.962;2023-01-29T11:59:25;101598.50;;;12.99;42.48
45813;BME280;31519;45.408;10.962;2023-01-29T12:02:16;101588.63;;;13.45;41.77
45813;BME280;31519;45.408;10.962;2023-01-29T12:04:46;101593.44;;;12.46;43.83
45813;BME280;31519;45.408;10.962;2023-01-29T12:07:17;101578.34;;;12.55;43.97
45813;BME280;31519;45.408;10.962;2023-01-29T12:09:55;101584.03;;;13.18;43.33
45813;BME280;31519;45.408;10.962;2023-01-29T12:12:28;101575.59;;;13.25;42.79
45813;BME280;31519;45.408;10.962;2023-01-29T12:17:55;101575.44;;;14.39;41.09
45813;BME280;31519;45.408;10.962;2023-01-29T12:20:58;101573.75;;;13.66;41.20
45813;BME280;31519;45.408;10.962;2023-01-29T12:29:39;101569.56;;;13.19;42.58
45813;BME280;31519;45.408;10.962;2023-01-29T12:35:20;101557.69;;;13.53;41.88
45813;BME280;31519;45.408;10.962;2023-01-29T12:40:46;101540.41;;;15.42;38.86
45813;BME280;31519;45.408;10.962;2023-01-29T12:43:17;101540.16;;;14.90;39.85
45813;BME280;31519;45.408;10.962;2023-01-29T12:45:51;101545.31;;;16.74;36.37
45813;BME280;31519;45.408;10.962;2023-01-29T12:48:25;101548.75;;;16.92;35.44
45813;BME280;31519;45.408;10.962;2023-01-29T12:51:02;101542.59;;;14.78;39.22
45813;BME280;31519;45.408;10.962;2023-01-29T12:53:41;101539.50;;;14.27;41.05
45813;BME280;31519;45.408;10.962;2023-01-29T12:56:15;101539.34;;;13.19;41.12
45813;BME280;31519;45.408;10.962;2023-01-29T12:58:50;101529.31;;;15.35;37.13
45813;BME280;31519;45.408;10.962;2023-01-29T13:01:34;101528.69;;;13.96;41.04
45813;BME280;31519;45.408;10.962;2023-01-29T13:04:26;101530.50;;;15.12;38.09
45813;BME280;31519;45.408;10.962;2023-01-29T13:09:54;101520.50;;;16.17;35.04
45813;BME280;31519;45.408;10.962;2023-01-29T13:12:25;101524.25;;;15.81;34.89
45813;BME280;31519;45.408;10.962;2023-01-29T13:14:57;101524.25;;;14.72;36.95
45813;BME280;31519;45.408;10.962;2023-01-29T13:17:36;101516.06;;;14.32;37.56
45813;BME280;31519;45.408;10.962;2023-01-29T13:20:23;101505.41;;;13.83;38.45
45813;BME280;31519;45.408;10.962;2023-01-29T13:23:20;101498.41;;;13.46;38.68
45813;BME280;31519;45.408;10.962;2023-01-29T13:25:53;101500.84;;;13.83;39.33
45813;BME280;31519;45.408;10.962;2023-01-29T13:28:24;101491.66;;;13.35;39.59
45813;BME280;31519;45.408;10.962;2023-01-29T13:34:30;101490.88;;;15.17;37.63
45813;BME280;31519;45.408;10.962;2023-01-29T13:36:49;101492.31;;;14.17;39.14
45813;BME280;31519;45.408;10.962;2023-01-29T13:41:51;101495.06;;;15.01;37.96
45813;BME280;31519;45.408;10.962;2023-01-29T13:47:02;101495.66;;;14.67;38.11
45813;BME280;31519;45.408;10.962;2023-01-29T13:49:43;101487.00;;;14.26;40.86
45813;BME280;31519;45.408;10.962;2023-01-29T13:55:02;101483.94;;;14.54;40.53
45813;BME280;31519;45.408;10.962;2023-01-29T14:10:36;101474.53;;;15.44;37.80
45813;BME280;31519;45.408;10.962;2023-01-29T14:18:25;101465.47;;;15.71;37.81
45813;BME280;31519;45.408;10.962;2023-01-29T14:20:57;101467.59;;;13.84;39.99
45813;BME280;31519;45.408;10.962;2023-01-29T14:23:27;101468.34;;;14.56;39.98
45813;BME280;31519;45.408;10.962;2023-01-29T14:25:58;101463.34;;;14.41;39.47
45813;BME280;31519;45.408;10.962;2023-01-29T14:28:30;101466.41;;;15.84;36.53
45813;BME280;31519;45.408;10.962;2023-01-29T14:30:59;101460.56;;;15.65;36.44
45813;BME280;31519;45.408;10.962;2023-01-29T14:33:35;101455.25;;;15.34;36.49
45813;BME280;31519;45.408;10.962;2023-01-29T14:36:11;101456.91;;;16.29;35.52
45813;BME280;31519;45.408;10.962;2023-01-29T14:38:46;101460.50;;;17.64;32.69
45813;BME280;31519;45.408;10.962;2023-01-29T14:43:49;101460.63;;;18.75;31.23
45813;BME280;31519;45.408;10.962;2023-01-29T14:49:00;101472.84;;;16.69;33.61
45813;BME280;31519;45.408;10.962;2023-01-29T14:51:36;101473.00;;;18.43;31.47
45813;BME280;31519;45.408;10.962;2023-01-29T14:54:20;101462.91;;;19.58;29.52
45813;BME280;31519;45.408;10.962;2023-01-29T14:56:59;101460.25;;;19.86;29.50
45813;BME280;31519;45.408;10.962;2023-01-29T14:59:36;101467.59;;;18.10;31.47
45813;BME280;31519;45.408;10.962;2023-01-29T15:02:19;101464.88;;;17.98;32.54
45813;BME280;31519;45.408;10.962;2023-01-29T15:04:53;101466.19;;;19.52;30.25
45813;BME280;31519;45.408;10.962;2023-01-29T15:07:47;101469.09;;;20.26;29.25
45813;BME280;31519;45.408;10.962;2023-01-29T15:13:31;101466.75;;;19.45;30.26
45813;BME280;31519;45.408;10.962;2023-01-29T15:16:13;101464.53;;;19.87;29.50
45813;BME280;31519;45.408;10.962;2023-01-29T15:18:43;101461.31;;;19.69;29.99
45813;BME280;31519;45.408;10.962;2023-01-29T15:21:13;101459.72;;;18.38;31.79
45813;BME280;31519;45.408;10.962;2023-01-29T15:23:42;101457.63;;;17.11;34.08
45813;BME280;31519;45.408;10.962;2023-01-29T15:26:17;101458.94;;;16.41;35.32
45813;BME280;31519;45.408;10.962;2023-01-29T15:28:59;101452.66;;;16.92;34.78
45813;BME280;31519;45.408;10.962;2023-01-29T15:31:31;101460.66;;;18.09;33.45
45813;BME280;31519;45.408;10.962;2023-01-29T15:34:05;101459.34;;;15.31;37.40
45813;BME280;31519;45.408;10.962;2023-01-29T15:36:33;101463.72;;;16.01;35.88
45813;BME280;31519;45.408;10.962;2023-01-29T15:41:38;101467.28;;;14.97;38.17
45813;BME280;31519;45.408;10.962;2023-01-29T15:44:12;101466.00;;;13.61;41.15
45813;BME280;31519;45.408;10.962;2023-01-29T15:46:44;101472.53;;;12.54;42.95
45813;BME280;31519;45.408;10.962;2023-01-29T15:49:20;101475.06;;;12.78;43.08